Airfield :
LOGIN :

Register | Disclaimer

   EN    FR    IT 

 










Legend :    VFR   Marginal VFR   IFR   Intensive IFR   Very Intensive IFR
Visi :
Ceiling :
>= 8 km
>= 3000ft
5 to 8 km
1000 to 3000 ft
1500m to 5 km
500 to 1000 ft
800 to 1500m
200 to 500 ft
< 800m
< 200 ft
Symbols :   Thunderstorms  Fog  Heavy snow  Heavy precipitations  Wind > 20 kt
SIGMETs :     Misc.  Thunderstorms  Icing  Turbulence  Mountain Waves  Volcanic Ashes







- Airport Elevation : 359 ft
- IATA code : BVA
- Download approach charts


LFOB - Beauvais

CURRENT METAR :
  • 160500Z AUTO 00000KT 0700 0400 R30/0900D R12/P2000 FZFG VV/// M02/M03 Q1025 TEMPO 0800 FG

EXPIRED METARs :
  • 160430Z AUTO 00000KT 1900 0600 R30/0550D R12/P2000 BCFG NSC M01/M02 Q1025 TEMPO 0800 FG VV///
  • 160400Z AUTO 00000KT 3200 R30/0900U BCFG VV/// M01/M02 Q1025 TEMPO 0800 FG
  • 160330Z AUTO 00000KT 0650 0600 R30/0700D R12/1600U FZFG FEW001 M01/M02 Q1025 TEMPO 0800 FG VV///
  • 160300Z AUTO 00000KT 4000 BR NSC M01/M02 Q1025 TEMPO 0800 FG VV///
  • 160230Z AUTO 00000KT 5000 BR FEW001 M02/M03 Q1026 TEMPO 0800 FG VV///

TAF TAF LFOB
Valid from the 16 at 00:00 until the 17 at 00:00 UTC


152300Z 1600/1624 12007KT CAVOK
BECMG 1600/1604 3000 BR
PROB40 1604/1608 0800 FG VV///
BECMG 1608/1611 CAVOK
BECMG 1622/1624 1500 BR OVC002
ATIS : +33 3 44 11 49 28
No reported NOTAMs for that airfield.



MET'MAP, your aeronautical weather chart ! - Copyright ORBIFLY December 2007 - Disclaimer

ORBIFLY MET'MAP TEAM :

Programming & Development : Alexandra Zaïnal
Concept & Development : Baudouin d'Aumeries
Co-Development & Prog : Marc-Olivier Méhu
Technical & hardware support : Manuel Goepfert

Contact : metmap@orbifly.com




SOURCES & CREDITS :

   NOAA